sensor_id;sensor_type;location;lat;lon;timestamp;pressure;altitude;pressure_sealevel;temperature;humidity
20156;BME280;10238;49.556;10.956;2022-11-15T00:00:28;98283.44;;;3.36;100.00
20156;BME280;10238;49.556;10.956;2022-11-15T00:03:16;98276.63;;;3.34;100.00
20156;BME280;10238;49.556;10.956;2022-11-15T00:06:05;98271.50;;;3.32;100.00
20156;BME280;10238;49.556;10.956;2022-11-15T00:08:57;98274.22;;;3.31;100.00
20156;BME280;10238;49.556;10.956;2022-11-15T00:16:49;98271.22;;;3.24;100.00
20156;BME280;10238;49.556;10.956;2022-11-15T00:19:37;98272.25;;;3.22;100.00
20156;BME280;10238;49.556;10.956;2022-11-15T00:22:32;98275.00;;;3.20;100.00
20156;BME280;10238;49.556;10.956;2022-11-15T00:25:21;98270.13;;;3.16;100.00
20156;BME280;10238;49.556;10.956;2022-11-15T00:28:08;98270.13;;;3.16;100.00
20156;BME280;10238;49.556;10.956;2022-11-15T00:31:00;98268.53;;;3.13;100.00
20156;BME280;10238;49.556;10.956;2022-11-15T00:33:49;98261.72;;;3.11;100.00
20156;BME280;10238;49.556;10.956;2022-11-15T00:36:46;98267.91;;;3.10;100.00
20156;BME280;10238;49.556;10.956;2022-11-15T00:39:33;98266.34;;;3.07;100.00
20156;BME280;10238;49.556;10.956;2022-11-15T00:42:22;98268.16;;;3.07;100.00
20156;BME280;10238;49.556;10.956;2022-11-15T00:45:10;98265.75;;;3.04;100.00
20156;BME280;10238;49.556;10.956;2022-11-15T00:47:57;98271.00;;;3.04;100.00
20156;BME280;10238;49.556;10.956;2022-11-15T00:50:45;98264.16;;;3.01;100.00
20156;BME280;10238;49.556;10.956;2022-11-15T00:53:32;98264.41;;;2.98;100.00
20156;BME280;10238;49.556;10.956;2022-11-15T00:56:20;98266.16;;;2.98;100.00
20156;BME280;10238;49.556;10.956;2022-11-15T00:59:08;98254.00;;;2.97;100.00
20156;BME280;10238;49.556;10.956;2022-11-15T01:01:56;98263.75;;;2.95;100.00
20156;BME280;10238;49.556;10.956;2022-11-15T01:04:43;98264.84;;;2.92;100.00
20156;BME280;10238;49.556;10.956;2022-11-15T01:07:31;98259.69;;;2.91;100.00
20156;BME280;10238;49.556;10.956;2022-11-15T01:10:19;98248.44;;;2.89;100.00
20156;BME280;10238;49.556;10.956;2022-11-15T01:13:07;98254.78;;;2.86;100.00
20156;BME280;10238;49.556;10.956;2022-11-15T01:15:56;98250.56;;;2.84;100.00
20156;BME280;10238;49.556;10.956;2022-11-15T01:18:47;98247.22;;;2.82;100.00
20156;BME280;10238;49.556;10.956;2022-11-15T01:21:34;98249.94;;;2.80;100.00
20156;BME280;10238;49.556;10.956;2022-11-15T01:24:21;98254.47;;;2.78;100.00
20156;BME280;10238;49.556;10.956;2022-11-15T01:27:09;98247.53;;;2.77;100.00
20156;BME280;10238;49.556;10.956;2022-11-15T01:29:57;98245.03;;;2.76;100.00
20156;BME280;10238;49.556;10.956;2022-11-15T01:32:46;98233.69;;;2.75;100.00
20156;BME280;10238;49.556;10.956;2022-11-15T01:35:38;98234.75;;;2.73;100.00
20156;BME280;10238;49.556;10.956;2022-11-15T01:38:25;98233.09;;;2.72;100.00
20156;BME280;10238;49.556;10.956;2022-11-15T01:41:19;98238.34;;;2.72;100.00
20156;BME280;10238;49.556;10.956;2022-11-15T01:44:40;98232.44;;;2.68;100.00
20156;BME280;10238;49.556;10.956;2022-11-15T01:47:31;98224.69;;;2.67;100.00
20156;BME280;10238;49.556;10.956;2022-11-15T01:50:26;98222.16;;;2.65;100.00
20156;BME280;10238;49.556;10.956;2022-11-15T01:53:16;98214.41;;;2.64;100.00
20156;BME280;10238;49.556;10.956;2022-11-15T01:56:08;98211.78;;;2.64;100.00
20156;BME280;10238;49.556;10.956;2022-11-15T01:58:58;98205.81;;;2.62;100.00
20156;BME280;10238;49.556;10.956;2022-11-15T02:01:48;98202.47;;;2.60;100.00
20156;BME280;10238;49.556;10.956;2022-11-15T02:04:41;98195.56;;;2.59;100.00
20156;BME280;10238;49.556;10.956;2022-11-15T02:07:32;98196.59;;;2.56;100.00
20156;BME280;10238;49.556;10.956;2022-11-15T02:10:24;98185.38;;;2.54;100.00
20156;BME280;10238;49.556;10.956;2022-11-15T02:13:12;98195.03;;;2.54;100.00
20156;BME280;10238;49.556;10.956;2022-11-15T02:16:09;98192.63;;;2.51;100.00
20156;BME280;10238;49.556;10.956;2022-11-15T02:19:08;98201.44;;;2.50;100.00
20156;BME280;10238;49.556;10.956;2022-11-15T02:22:16;98198.81;;;2.50;100.00
20156;BME280;10238;49.556;10.956;2022-11-15T02:25:37;98192.84;;;2.48;100.00
20156;BME280;10238;49.556;10.956;2022-11-15T02:28:45;98185.94;;;2.47;100.00
20156;BME280;10238;49.556;10.956;2022-11-15T02:31:47;98179.13;;;2.44;100.00
20156;BME280;10238;49.556;10.956;2022-11-15T02:34:48;98176.59;;;2.43;100.00
20156;BME280;10238;49.556;10.956;2022-11-15T02:37:52;98168.00;;;2.41;100.00
20156;BME280;10238;49.556;10.956;2022-11-15T02:40:59;98164.63;;;2.39;100.00
20156;BME280;10238;49.556;10.956;2022-11-15T02:43:53;98165.59;;;2.38;100.00
20156;BME280;10238;49.556;10.956;2022-11-15T02:46:48;98160.44;;;2.36;100.00
20156;BME280;10238;49.556;10.956;2022-11-15T02:50:01;98158.91;;;2.34;100.00
20156;BME280;10238;49.556;10.956;2022-11-15T02:52:59;98160.56;;;2.35;100.00
20156;BME280;10238;49.556;10.956;2022-11-15T02:55:50;98156.38;;;2.32;100.00
20156;BME280;10238;49.556;10.956;2022-11-15T02:59:00;98150.41;;;2.30;100.00
20156;BME280;10238;49.556;10.956;2022-11-15T03:02:16;98143.47;;;2.29;100.00
20156;BME280;10238;49.556;10.956;2022-11-15T03:05:19;98140.00;;;2.28;100.00
20156;BME280;10238;49.556;10.956;2022-11-15T03:08:22;98134.06;;;2.27;100.00
20156;BME280;10238;49.556;10.956;2022-11-15T03:11:16;98128.19;;;2.23;100.00
20156;BME280;10238;49.556;10.956;2022-11-15T03:14:18;98137.00;;;2.22;100.00
20156;BME280;10238;49.556;10.956;2022-11-15T03:17:16;98131.13;;;2.18;100.00
20156;BME280;10238;49.556;10.956;2022-11-15T03:20:10;98134.59;;;2.19;100.00
20156;BME280;10238;49.556;10.956;2022-11-15T03:23:02;98131.25;;;2.17;100.00
20156;BME280;10238;49.556;10.956;2022-11-15T03:25:54;98116.56;;;2.14;100.00
20156;BME280;10238;49.556;10.956;2022-11-15T03:28:47;98114.88;;;2.13;100.00
20156;BME280;10238;49.556;10.956;2022-11-15T03:31:42;98115.13;;;2.10;100.00
20156;BME280;10238;49.556;10.956;2022-11-15T03:34:43;98110.09;;;2.07;100.00
20156;BME280;10238;49.556;10.956;2022-11-15T03:37:37;98116.16;;;2.08;100.00
20156;BME280;10238;49.556;10.956;2022-11-15T03:40:34;98116.25;;;2.06;100.00
20156;BME280;10238;49.556;10.956;2022-11-15T03:43:34;98117.31;;;2.04;100.00
20156;BME280;10238;49.556;10.956;2022-11-15T03:46:28;98112.19;;;2.02;100.00
20156;BME280;10238;49.556;10.956;2022-11-15T03:49:27;98111.56;;;1.99;100.00
20156;BME280;10238;49.556;10.956;2022-11-15T03:52:20;98102.88;;;1.98;100.00
20156;BME280;10238;49.556;10.956;2022-11-15T03:55:13;98115.03;;;1.99;100.00
20156;BME280;10238;49.556;10.956;2022-11-15T03:58:02;98108.94;;;1.99;100.00
20156;BME280;10238;49.556;10.956;2022-11-15T04:00:49;98119.31;;;2.00;100.00
20156;BME280;10238;49.556;10.956;2022-11-15T04:03:37;98117.84;;;1.96;100.00
20156;BME280;10238;49.556;10.956;2022-11-15T04:06:24;98120.69;;;1.93;100.00
20156;BME280;10238;49.556;10.956;2022-11-15T04:09:13;98111.06;;;1.94;100.00
20156;BME280;10238;49.556;10.956;2022-11-15T04:12:01;98112.84;;;1.93;100.00
20156;BME280;10238;49.556;10.956;2022-11-15T04:14:48;98114.75;;;1.91;100.00
20156;BME280;10238;49.556;10.956;2022-11-15T04:17:56;98106.13;;;1.89;100.00
20156;BME280;10238;49.556;10.956;2022-11-15T04:20:43;98103.41;;;1.91;100.00
20156;BME280;10238;49.556;10.956;2022-11-15T04:23:48;98102.56;;;1.90;100.00
20156;BME280;10238;49.556;10.956;2022-11-15T04:26:55;98102.56;;;1.90;100.00
20156;BME280;10238;49.556;10.956;2022-11-15T04:29:42;98105.94;;;1.92;100.00
20156;BME280;10238;49.556;10.956;2022-11-15T04:32:29;98101.44;;;1.94;100.00
20156;BME280;10238;49.556;10.956;2022-11-15T04:35:17;98097.94;;;1.94;100.00
20156;BME280;10238;49.556;10.956;2022-11-15T04:38:07;98084.97;;;1.92;100.00
20156;BME280;10238;49.556;10.956;2022-11-15T04:40:55;98095.53;;;1.91;100.00
20156;BME280;10238;49.556;10.956;2022-11-15T04:43:45;98097.31;;;1.90;100.00
20156;BME280;10238;49.556;10.956;2022-11-15T04:46:32;98082.66;;;1.88;100.00
20156;BME280;10238;49.556;10.956;2022-11-15T04:49:20;98085.38;;;1.86;100.00
20156;BME280;10238;49.556;10.956;2022-11-15T04:52:07;98082.03;;;1.84;100.00
20156;BME280;10238;49.556;10.956;2022-11-15T04:54:55;98077.75;;;1.83;100.00
20156;BME280;10238;49.556;10.956;2022-11-15T04:57:42;98078.69;;;1.82;100.00
20156;BME280;10238;49.556;10.956;2022-11-15T05:00:31;98063.78;;;1.83;100.00
20156;BME280;10238;49.556;10.956;2022-11-15T05:03:18;98060.47;;;1.81;100.00
20156;BME280;10238;49.556;10.956;2022-11-15T05:06:24;98068.44;;;1.79;100.00
20156;BME280;10238;49.556;10.956;2022-11-15T05:09:11;98063.28;;;1.78;100.00
20156;BME280;10238;49.556;10.956;2022-11-15T05:12:00;98051.25;;;1.75;100.00
20156;BME280;10238;49.556;10.956;2022-11-15T05:14:47;98066.13;;;1.75;100.00
20156;BME280;10238;49.556;10.956;2022-11-15T05:17:36;98055.75;;;1.73;100.00
20156;BME280;10238;49.556;10.956;2022-11-15T05:20:23;98065.38;;;1.73;100.00
20156;BME280;10238;49.556;10.956;2022-11-15T05:23:11;98064.69;;;1.71;100.00
20156;BME280;10238;49.556;10.956;2022-11-15T05:25:59;98070.03;;;1.69;100.00
20156;BME280;10238;49.556;10.956;2022-11-15T05:28:56;98070.22;;;1.66;100.00
20156;BME280;10238;49.556;10.956;2022-11-15T05:31:44;98068.53;;;1.65;100.00
20156;BME280;10238;49.556;10.956;2022-11-15T05:34:32;98060.69;;;1.65;100.00
20156;BME280;10238;49.556;10.956;2022-11-15T05:37:20;98058.28;;;1.62;100.00
20156;BME280;10238;49.556;10.956;2022-11-15T05:40:08;98057.44;;;1.62;100.00
20156;BME280;10238;49.556;10.956;2022-11-15T05:42:57;98059.34;;;1.60;100.00
20156;BME280;10238;49.556;10.956;2022-11-15T05:45:47;98049.06;;;1.57;100.00
20156;BME280;10238;49.556;10.956;2022-11-15T05:48:37;98047.41;;;1.56;100.00
20156;BME280;10238;49.556;10.956;2022-11-15T05:51:30;98043.94;;;1.55;100.00
20156;BME280;10238;49.556;10.956;2022-11-15T05:54:19;98045.75;;;1.55;100.00
20156;BME280;10238;49.556;10.956;2022-11-15T05:57:08;98045.09;;;1.51;100.00
20156;BME280;10238;49.556;10.956;2022-11-15T05:59:56;98042.69;;;1.48;100.00
20156;BME280;10238;49.556;10.956;2022-11-15T06:02:43;98039.34;;;1.46;100.00
20156;BME280;10238;49.556;10.956;2022-11-15T06:05:31;98035.16;;;1.44;100.00
20156;BME280;10238;49.556;10.956;2022-11-15T06:08:20;98034.41;;;1.42;100.00
20156;BME280;10238;49.556;10.956;2022-11-15T06:11:07;98043.31;;;1.39;100.00
20156;BME280;10238;49.556;10.956;2022-11-15T06:13:56;98050.88;;;1.44;100.00
20156;BME280;10238;49.556;10.956;2022-11-15T06:16:44;98044.88;;;1.42;100.00
20156;BME280;10238;49.556;10.956;2022-11-15T06:19:32;98053.78;;;1.39;100.00
20156;BME280;10238;49.556;10.956;2022-11-15T06:22:20;98054.84;;;1.37;100.00
20156;BME280;10238;49.556;10.956;2022-11-15T06:25:09;98060.94;;;1.37;100.00
20156;BME280;10238;49.556;10.956;2022-11-15T06:27:58;98063.56;;;1.37;100.00
20156;BME280;10238;49.556;10.956;2022-11-15T06:30:46;98065.31;;;1.37;100.00
20156;BME280;10238;49.556;10.956;2022-11-15T06:33:39;98069.00;;;1.34;100.00
20156;BME280;10238;49.556;10.956;2022-11-15T06:36:26;98063.88;;;1.33;100.00
20156;BME280;10238;49.556;10.956;2022-11-15T06:39:14;98064.78;;;1.32;100.00
20156;BME280;10238;49.556;10.956;2022-11-15T06:42:02;98059.56;;;1.32;100.00
20156;BME280;10238;49.556;10.956;2022-11-15T06:44:50;98052.56;;;1.32;100.00
20156;BME280;10238;49.556;10.956;2022-11-15T06:47:44;98056.13;;;1.31;100.00
20156;BME280;10238;49.556;10.956;2022-11-15T06:50:33;98049.19;;;1.30;100.00
20156;BME280;10238;49.556;10.956;2022-11-15T06:53:20;98045.84;;;1.28;100.00
20156;BME280;10238;49.556;10.956;2022-11-15T06:56:08;98046.78;;;1.27;100.00
20156;BME280;10238;49.556;10.956;2022-11-15T06:58:57;98054.44;;;1.30;100.00
20156;BME280;10238;49.556;10.956;2022-11-15T07:01:45;98055.28;;;1.31;100.00
20156;BME280;10238;49.556;10.956;2022-11-15T07:04:34;98060.41;;;1.32;100.00
20156;BME280;10238;49.556;10.956;2022-11-15T07:07:22;98056.84;;;1.33;100.00
20156;BME280;10238;49.556;10.956;2022-11-15T07:10:10;98052.56;;;1.32;100.00
20156;BME280;10238;49.556;10.956;2022-11-15T07:12:58;98047.94;;;1.36;100.00
20156;BME280;10238;49.556;10.956;2022-11-15T07:15:46;98048.56;;;1.39;100.00
20156;BME280;10238;49.556;10.956;2022-11-15T07:18:35;98045.84;;;1.41;100.00
20156;BME280;10238;49.556;10.956;2022-11-15T07:21:23;98049.19;;;1.43;100.00
20156;BME280;10238;49.556;10.956;2022-11-15T07:24:13;98055.25;;;1.43;100.00
20156;BME280;10238;49.556;10.956;2022-11-15T07:27:00;98052.97;;;1.51;100.00
20156;BME280;10238;49.556;10.956;2022-11-15T07:29:48;98054.81;;;1.74;100.00
20156;BME280;10238;49.556;10.956;2022-11-15T07:32:37;98049.13;;;1.80;100.00
20156;BME280;10238;49.556;10.956;2022-11-15T07:35:26;98044.25;;;1.99;100.00
20156;BME280;10238;49.556;10.956;2022-11-15T07:38:15;98045.16;;;2.11;100.00
20156;BME280;10238;49.556;10.956;2022-11-15T07:41:06;98048.25;;;2.28;100.00
20156;BME280;10238;49.556;10.956;2022-11-15T07:43:54;98043.06;;;2.40;100.00
20156;BME280;10238;49.556;10.956;2022-11-15T07:46:41;98047.03;;;2.45;100.00
20156;BME280;10238;49.556;10.956;2022-11-15T07:49:30;98050.00;;;2.52;100.00
20156;BME280;10238;49.556;10.956;2022-11-15T07:52:18;98046.38;;;2.65;100.00
20156;BME280;10238;49.556;10.956;2022-11-15T07:55:07;98050.41;;;2.58;100.00
20156;BME280;10238;49.556;10.956;2022-11-15T07:58:01;98047.53;;;2.85;100.00
20156;BME280;10238;49.556;10.956;2022-11-15T08:00:49;98052.56;;;2.99;100.00
20156;BME280;10238;49.556;10.956;2022-11-15T08:03:37;98051.19;;;3.17;100.00
20156;BME280;10238;49.556;10.956;2022-11-15T08:06:26;98041.06;;;3.45;100.00
20156;BME280;10238;49.556;10.956;2022-11-15T08:09:13;98039.03;;;3.38;100.00
20156;BME280;10238;49.556;10.956;2022-11-15T08:12:01;98041.81;;;3.47;100.00
20156;BME280;10238;49.556;10.956;2022-11-15T08:14:48;98046.00;;;3.61;100.00
20156;BME280;10238;49.556;10.956;2022-11-15T08:17:36;98050.75;;;3.78;100.00
20156;BME280;10238;49.556;10.956;2022-11-15T08:20:26;98050.00;;;3.98;100.00
20156;BME280;10238;49.556;10.956;2022-11-15T08:23:17;98053.50;;;3.98;100.00
20156;BME280;10238;49.556;10.956;2022-11-15T08:26:05;98050.22;;;4.17;100.00
20156;BME280;10238;49.556;10.956;2022-11-15T08:28:52;98047.34;;;4.63;100.00
20156;BME280;10238;49.556;10.956;2022-11-15T08:31:40;98044.50;;;4.86;100.00
20156;BME280;10238;49.556;10.956;2022-11-15T08:34:28;98054.19;;;4.86;100.00
20156;BME280;10238;49.556;10.956;2022-11-15T08:37:15;98046.03;;;5.09;100.00
20156;BME280;10238;49.556;10.956;2022-11-15T08:40:06;98042.75;;;5.37;100.00
20156;BME280;10238;49.556;10.956;2022-11-15T08:42:53;98028.28;;;5.52;100.00
20156;BME280;10238;49.556;10.956;2022-11-15T08:45:41;98031.66;;;5.64;100.00
20156;BME280;10238;49.556;10.956;2022-11-15T08:48:29;98024.34;;;5.77;100.00
20156;BME280;10238;49.556;10.956;2022-11-15T08:51:18;98030.59;;;5.96;100.00
20156;BME280;10238;49.556;10.956;2022-11-15T08:54:06;98020.56;;;6.00;100.00
20156;BME280;10238;49.556;10.956;2022-11-15T08:56:55;98026.25;;;5.95;100.00
20156;BME280;10238;49.556;10.956;2022-11-15T08:59:43;98018.03;;;6.28;100.00
20156;BME280;10238;49.556;10.956;2022-11-15T09:02:31;98016.91;;;6.98;100.00
20156;BME280;10238;49.556;10.956;2022-11-15T09:05:18;98015.00;;;6.90;100.00
20156;BME280;10238;49.556;10.956;2022-11-15T09:08:06;98010.41;;;7.02;100.00
20156;BME280;10238;49.556;10.956;2022-11-15T09:11:13;98002.41;;;7.30;100.00
20156;BME280;10238;49.556;10.956;2022-11-15T09:14:04;97991.06;;;7.57;100.00
20156;BME280;10238;49.556;10.956;2022-11-15T09:16:51;97985.91;;;7.55;100.00
20156;BME280;10238;49.556;10.956;2022-11-15T09:19:39;97993.56;;;7.49;100.00
20156;BME280;10238;49.556;10.956;2022-11-15T09:22:26;97978.38;;;7.60;100.00
20156;BME280;10238;49.556;10.956;2022-11-15T09:25:14;97980.63;;;7.55;100.00
20156;BME280;10238;49.556;10.956;2022-11-15T09:28:06;97980.56;;;7.65;100.00
20156;BME280;10238;49.556;10.956;2022-11-15T09:30:57;97972.25;;;7.60;100.00
20156;BME280;10238;49.556;10.956;2022-11-15T09:33:46;97966.38;;;7.66;100.00
20156;BME280;10238;49.556;10.956;2022-11-15T09:36:34;97967.69;;;7.79;100.00
20156;BME280;10238;49.556;10.956;2022-11-15T09:39:22;97956.66;;;8.11;100.00
20156;BME280;10238;49.556;10.956;2022-11-15T09:42:41;97950.06;;;8.42;100.00
20156;BME280;10238;49.556;10.956;2022-11-15T09:45:41;97942.31;;;8.83;100.00
20156;BME280;10238;49.556;10.956;2022-11-15T09:48:50;97932.19;;;9.05;100.00
20156;BME280;10238;49.556;10.956;2022-11-15T09:51:43;97929.13;;;9.17;100.00
20156;BME280;10238;49.556;10.956;2022-11-15T09:54:36;97919.44;;;9.08;100.00
20156;BME280;10238;49.556;10.956;2022-11-15T09:57:50;97912.88;;;9.12;100.00
20156;BME280;10238;49.556;10.956;2022-11-15T10:00:46;97912.25;;;9.18;100.00
20156;BME280;10238;49.556;10.956;2022-11-15T10:03:41;97905.03;;;9.36;100.00
20156;BME280;10238;49.556;10.956;2022-11-15T10:06:35;97898.16;;;9.51;100.00
20156;BME280;10238;49.556;10.956;2022-11-15T10:09:30;97895.78;;;9.82;100.00
20156;BME280;10238;49.556;10.956;2022-11-15T10:12:20;97889.19;;;10.02;100.00
20156;BME280;10238;49.556;10.956;2022-11-15T10:15:15;97876.28;;;10.15;100.00
20156;BME280;10238;49.556;10.956;2022-11-15T10:18:13;97866.53;;;10.47;100.00
20156;BME280;10238;49.556;10.956;2022-11-15T10:21:17;97859.56;;;10.62;100.00
20156;BME280;10238;49.556;10.956;2022-11-15T10:24:11;97845.59;;;10.60;100.00
20156;BME280;10238;49.556;10.956;2022-11-15T10:27:00;97847.94;;;10.71;100.00
20156;BME280;10238;49.556;10.956;2022-11-15T10:29:50;97837.28;;;10.79;100.00
20156;BME280;10238;49.556;10.956;2022-11-15T10:32:39;97837.91;;;10.98;100.00
20156;BME280;10238;49.556;10.956;2022-11-15T10:35:29;97831.94;;;11.04;100.00
20156;BME280;10238;49.556;10.956;2022-11-15T10:38:19;97828.59;;;11.10;100.00
20156;BME280;10238;49.556;10.956;2022-11-15T10:41:07;97823.50;;;11.31;100.00
20156;BME280;10238;49.556;10.956;2022-11-15T10:44:20;97810.47;;;11.44;100.00
20156;BME280;10238;49.556;10.956;2022-11-15T10:47:28;97804.44;;;11.58;100.00
20156;BME280;10238;49.556;10.956;2022-11-15T10:50:30;97814.06;;;11.59;100.00
20156;BME280;10238;49.556;10.956;2022-11-15T10:53:33;97802.41;;;11.60;100.00
20156;BME280;10238;49.556;10.956;2022-11-15T10:56:26;97795.63;;;11.65;100.00
20156;BME280;10238;49.556;10.956;2022-11-15T10:59:24;97795.38;;;11.75;100.00
20156;BME280;10238;49.556;10.956;2022-11-15T11:02:56;97784.50;;;12.07;100.00
20156;BME280;10238;49.556;10.956;2022-11-15T11:05:44;97776.69;;;12.28;100.00
20156;BME280;10238;49.556;10.956;2022-11-15T11:08:34;97762.00;;;12.32;100.00
20156;BME280;10238;49.556;10.956;2022-11-15T11:11:22;97771.75;;;12.39;100.00
20156;BME280;10238;49.556;10.956;2022-11-15T11:14:12;97768.81;;;12.49;100.00
20156;BME280;10238;49.556;10.956;2022-11-15T11:17:09;97761.69;;;12.64;100.00
20156;BME280;10238;49.556;10.956;2022-11-15T11:20:06;97767.13;;;12.70;100.00
20156;BME280;10238;49.556;10.956;2022-11-15T11:23:12;97776.34;;;12.97;100.00
20156;BME280;10238;49.556;10.956;2022-11-15T11:26:18;97761.47;;;13.02;100.00
20156;BME280;10238;49.556;10.956;2022-11-15T11:29:29;97757.50;;;13.13;100.00
20156;BME280;10238;49.556;10.956;2022-11-15T11:32:50;97759.97;;;13.44;100.00
20156;BME280;10238;49.556;10.956;2022-11-15T11:35:51;97745.59;;;13.45;100.00
20156;BME280;10238;49.556;10.956;2022-11-15T11:39:00;97762.75;;;13.71;100.00
20156;BME280;10238;49.556;10.956;2022-11-15T11:42:06;97730.44;;;13.66;100.00
20156;BME280;10238;49.556;10.956;2022-11-15T11:45:15;97719.66;;;13.74;100.00
20156;BME280;10238;49.556;10.956;2022-11-15T11:48:13;97720.06;;;13.78;100.00
20156;BME280;10238;49.556;10.956;2022-11-15T11:51:10;97725.34;;;13.92;100.00
20156;BME280;10238;49.556;10.956;2022-11-15T11:54:06;97728.06;;;14.20;100.00
20156;BME280;10238;49.556;10.956;2022-11-15T11:57:02;97734.41;;;14.33;100.00
20156;BME280;10238;49.556;10.956;2022-11-15T12:00:02;97734.38;;;14.54;100.00
20156;BME280;10238;49.556;10.956;2022-11-15T12:03:05;97728.91;;;14.69;100.00
20156;BME280;10238;49.556;10.956;2022-11-15T12:05:59;97698.53;;;14.49;100.00
20156;BME280;10238;49.556;10.956;2022-11-15T12:09:01;97707.03;;;14.59;100.00
20156;BME280;10238;49.556;10.956;2022-11-15T12:11:56;97728.03;;;14.96;100.00
20156;BME280;10238;49.556;10.956;2022-11-15T12:14:54;97717.00;;;15.05;100.00
20156;BME280;10238;49.556;10.956;2022-11-15T12:17:43;97727.38;;;15.22;100.00
20156;BME280;10238;49.556;10.956;2022-11-15T12:20:36;97697.56;;;14.90;100.00
20156;BME280;10238;49.556;10.956;2022-11-15T12:23:29;97708.38;;;15.16;100.00
20156;BME280;10238;49.556;10.956;2022-11-15T12:26:22;97718.63;;;15.41;100.00
20156;BME280;10238;49.556;10.956;2022-11-15T12:29:15;97715.75;;;15.49;100.00
20156;BME280;10238;49.556;10.956;2022-11-15T12:32:11;97712.69;;;15.52;100.00
20156;BME280;10238;49.556;10.956;2022-11-15T12:35:06;97706.97;;;15.61;100.00
20156;BME280;10238;49.556;10.956;2022-11-15T12:38:10;97709.03;;;15.66;100.00
20156;BME280;10238;49.556;10.956;2022-11-15T12:41:14;97694.56;;;15.60;100.00
20156;BME280;10238;49.556;10.956;2022-11-15T12:44:04;97692.72;;;15.61;100.00
20156;BME280;10238;49.556;10.956;2022-11-15T12:47:22;97688.00;;;15.63;100.00
20156;BME280;10238;49.556;10.956;2022-11-15T12:50:13;97693.75;;;15.66;100.00
20156;BME280;10238;49.556;10.956;2022-11-15T12:53:30;97674.56;;;15.56;100.00
20156;BME280;10238;49.556;10.956;2022-11-15T12:56:22;97678.28;;;15.62;100.00
20156;BME280;10238;49.556;10.956;2022-11-15T12:59:10;97675.59;;;15.55;100.00
20156;BME280;10238;49.556;10.956;2022-11-15T13:01:59;97679.31;;;15.61;100.00
20156;BME280;10238;49.556;10.956;2022-11-15T13:04:49;97681.81;;;15.62;100.00
20156;BME280;10238;49.556;10.956;2022-11-15T13:07:56;97673.34;;;15.65;100.00
20156;BME280;10238;49.556;10.956;2022-11-15T13:10:44;97682.84;;;15.68;100.00
20156;BME280;10238;49.556;10.956;2022-11-15T13:13:43;97680.16;;;15.68;100.00
20156;BME280;10238;49.556;10.956;2022-11-15T13:16:31;97676.47;;;15.69;100.00
20156;BME280;10238;49.556;10.956;2022-11-15T13:19:22;97681.84;;;15.69;100.00
20156;BME280;10238;49.556;10.956;2022-11-15T13:22:12;97670.28;;;15.68;100.00
20156;BME280;10238;49.556;10.956;2022-11-15T13:25:25;97655.44;;;15.66;100.00
20156;BME280;10238;49.556;10.956;2022-11-15T13:28:30;97644.50;;;15.61;100.00
20156;BME280;10238;49.556;10.956;2022-11-15T13:31:29;97643.88;;;15.59;100.00
20156;BME280;10238;49.556;10.956;2022-11-15T13:34:25;97642.22;;;15.58;100.00
20156;BME280;10238;49.556;10.956;2022-11-15T13:37:35;97638.94;;;15.56;100.00
20156;BME280;10238;49.556;10.956;2022-11-15T13:40:26;97632.75;;;15.55;100.00
20156;BME280;10238;49.556;10.956;2022-11-15T13:43:28;97627.75;;;15.46;100.00
20156;BME280;10238;49.556;10.956;2022-11-15T13:46:18;97631.50;;;15.51;100.00
20156;BME280;10238;49.556;10.956;2022-11-15T13:49:09;97620.78;;;15.51;100.00
20156;BME280;10238;49.556;10.956;2022-11-15T13:52:00;97615.84;;;15.48;100.00
20156;BME280;10238;49.556;10.956;2022-11-15T13:54:55;97608.00;;;15.53;100.00
20156;BME280;10238;49.556;10.956;2022-11-15T13:57:46;97606.16;;;15.54;100.00
20156;BME280;10238;49.556;10.956;2022-11-15T14:00:37;97616.03;;;15.47;100.00
20156;BME280;10238;49.556;10.956;2022-11-15T14:03:27;97610.09;;;15.51;100.00
20156;BME280;10238;49.556;10.956;2022-11-15T14:06:18;97597.28;;;15.47;100.00
20156;BME280;10238;49.556;10.956;2022-11-15T14:09:32;97588.00;;;15.43;100.00
20156;BME280;10238;49.556;10.956;2022-11-15T14:12:28;97591.50;;;15.43;100.00
20156;BME280;10238;49.556;10.956;2022-11-15T14:15:27;97594.75;;;15.32;100.00
20156;BME280;10238;49.556;10.956;2022-11-15T14:18:41;97602.81;;;15.32;100.00
20156;BME280;10238;49.556;10.956;2022-11-15T14:21:29;97596.38;;;15.20;100.00
20156;BME280;10238;49.556;10.956;2022-11-15T14:24:18;97605.00;;;15.22;100.00
20156;BME280;10238;49.556;10.956;2022-11-15T14:27:27;97591.78;;;15.07;100.00
20156;BME280;10238;49.556;10.956;2022-11-15T14:30:16;97585.41;;;14.95;100.00
20156;BME280;10238;49.556;10.956;2022-11-15T14:33:20;97596.09;;;14.95;100.00
20156;BME280;10238;49.556;10.956;2022-11-15T14:36:13;97595.88;;;14.90;100.00
20156;BME280;10238;49.556;10.956;2022-11-15T14:39:01;97599.53;;;14.83;100.00
20156;BME280;10238;49.556;10.956;2022-11-15T14:41:51;97595.56;;;14.72;100.00
20156;BME280;10238;49.556;10.956;2022-11-15T14:44:41;97607.28;;;14.65;100.00
20156;BME280;10238;49.556;10.956;2022-11-15T14:47:31;97605.34;;;14.52;100.00
20156;BME280;10238;49.556;10.956;2022-11-15T14:50:21;97606.91;;;14.40;100.00
20156;BME280;10238;49.556;10.956;2022-11-15T14:53:12;97601.50;;;14.27;100.00
20156;BME280;10238;49.556;10.956;2022-11-15T14:56:00;97588.00;;;14.14;100.00
20156;BME280;10238;49.556;10.956;2022-11-15T14:58:48;97586.28;;;14.00;100.00
20156;BME280;10238;49.556;10.956;2022-11-15T15:01:38;97582.69;;;13.87;100.00
20156;BME280;10238;49.556;10.956;2022-11-15T15:04:26;97585.25;;;13.74;100.00
20156;BME280;10238;49.556;10.956;2022-11-15T15:07:14;97577.31;;;13.59;100.00